createdAt,value
2023-02-27T00:00:14.837Z,5.30
2023-02-27T00:06:59.038Z,5.40
2023-02-27T00:12:05.173Z,4.70
2023-02-27T00:17:10.761Z,4.70
2023-02-27T00:22:44.078Z,4.70
2023-02-27T00:28:01.705Z,4.80
2023-02-27T00:33:15.636Z,4.90
2023-02-27T00:38:42.538Z,4.80
2023-02-27T00:43:54.977Z,4.20
2023-02-27T00:49:01.388Z,4.10
2023-02-27T00:54:09.831Z,4.50
2023-02-27T00:59:21.803Z,4.50
2023-02-27T01:04:35.532Z,5.30
2023-02-27T01:10:04.939Z,4.90
2023-02-27T01:16:14.466Z,4.60
2023-02-27T01:22:04.973Z,4.60
2023-02-27T01:27:08.757Z,4.40
2023-02-27T01:32:13.737Z,4.60
2023-02-27T01:37:37.482Z,4.20
2023-02-27T01:43:34.544Z,4.00
2023-02-27T01:49:02.091Z,4.00
2023-02-27T01:54:27.060Z,5.40
2023-02-27T01:59:42.586Z,5.00
2023-02-27T02:04:50.525Z,4.70
2023-02-27T02:10:04.899Z,4.90
2023-02-27T02:15:17.181Z,4.30
2023-02-27T02:21:24.456Z,4.60
2023-02-27T02:27:22.307Z,5.00
2023-02-27T02:33:41.242Z,4.60
2023-02-27T02:38:56.814Z,5.00
2023-02-27T02:44:07.204Z,5.00
2023-02-27T02:49:53.254Z,4.80
2023-02-27T02:55:22.581Z,5.30
2023-02-27T03:00:31.845Z,5.40
2023-02-27T03:05:47.117Z,5.60
2023-02-27T03:10:58.346Z,5.90
2023-02-27T03:16:24.824Z,6.00
2023-02-27T03:21:36.591Z,6.50
2023-02-27T03:27:09.548Z,6.40
2023-02-27T03:32:50.434Z,6.80
2023-02-27T03:38:50.772Z,6.10
2023-02-27T03:44:20.239Z,6.20
2023-02-27T03:49:27.962Z,7.00
2023-02-27T03:54:50.458Z,6.70
2023-02-27T03:59:57.054Z,7.90
2023-02-27T04:05:00.309Z,7.20
2023-02-27T04:11:49.665Z,6.70
2023-02-27T04:17:48.818Z,6.70
2023-02-27T04:23:34.580Z,6.90
2023-02-27T04:28:47.209Z,7.10
2023-02-27T04:34:11.043Z,6.70
2023-02-27T04:39:44.831Z,7.50
2023-02-27T04:44:54.960Z,7.20
2023-02-27T04:50:08.044Z,6.10
2023-02-27T04:55:20.423Z,5.50
2023-02-27T05:00:32.230Z,5.00
2023-02-27T05:05:40.232Z,5.60
2023-02-27T05:11:01.858Z,5.70
2023-02-27T05:17:03.662Z,5.70
2023-02-27T05:22:33.533Z,5.00
2023-02-27T05:28:03.231Z,5.70
2023-02-27T05:34:13.285Z,5.30
2023-02-27T05:39:41.410Z,4.90
2023-02-27T05:46:05.572Z,4.70
2023-02-27T05:51:38.955Z,4.20
2023-02-27T05:56:52.319Z,4.10
2023-02-27T06:01:55.972Z,4.50
2023-02-27T06:07:14.905Z,4.50
2023-02-27T06:12:21.434Z,5.80
2023-02-27T06:17:45.061Z,5.00
2023-02-27T06:22:48.478Z,3.20
2023-02-27T06:27:51.661Z,3.30
2023-02-27T06:33:06.161Z,3.80
2023-02-27T06:38:09.519Z,2.20
2023-02-27T06:43:34.905Z,2.50
2023-02-27T06:48:38.235Z,2.30
2023-02-27T06:53:54.155Z,1.80
2023-02-27T06:58:59.484Z,1.80
2023-02-27T07:04:02.892Z,1.90
2023-02-27T07:09:20.644Z,1.70
2023-02-27T07:14:34.953Z,1.80
2023-02-27T07:19:41.443Z,2.20
2023-02-27T07:25:16.621Z,1.80
2023-02-27T07:30:22.900Z,1.70
2023-02-27T07:35:26.514Z,1.70
2023-02-27T07:40:29.927Z,1.60
2023-02-27T07:45:43.284Z,1.40
2023-02-27T07:50:49.286Z,1.90
2023-02-27T07:55:53.176Z,1.70
2023-02-27T08:01:16.910Z,1.50
2023-02-27T08:06:40.950Z,1.80
2023-02-27T08:11:44.339Z,1.60
2023-02-27T08:16:50.156Z,2.00
2023-02-27T08:21:53.335Z,1.80
2023-02-27T08:26:57.448Z,1.70
2023-02-27T08:32:02.596Z,1.90
2023-02-27T08:37:26.034Z,1.70
2023-02-27T08:42:51.732Z,1.60
2023-02-27T08:47:55.142Z,1.50
2023-02-27T08:53:00.893Z,1.80
2023-02-27T08:58:36.006Z,1.60
2023-02-27T09:04:08.886Z,1.70
2023-02-27T09:10:01.094Z,2.10
2023-02-27T09:15:09.055Z,1.80
2023-02-27T09:20:19.111Z,1.70
2023-02-27T09:25:33.329Z,1.70
2023-02-27T09:31:32.950Z,2.40
2023-02-27T09:37:12.793Z,1.50
2023-02-27T09:42:54.212Z,1.90
2023-02-27T09:53:50.687Z,2.50
2023-02-27T09:59:17.189Z,2.20
2023-02-27T10:04:43.459Z,2.30
2023-02-27T10:10:14.305Z,2.00
2023-02-27T10:15:31.236Z,2.00
2023-02-27T10:20:42.850Z,1.90
2023-02-27T10:25:49.983Z,2.40
2023-02-27T10:30:59.936Z,1.90
2023-02-27T10:37:14.900Z,1.90
2023-02-27T10:42:18.767Z,2.50
2023-02-27T10:47:24.970Z,2.60
2023-02-27T10:52:28.450Z,2.00
2023-02-27T10:57:39.786Z,2.40
2023-02-27T11:02:52.112Z,1.90
2023-02-27T11:13:40.217Z,2.50
2023-02-27T11:18:52.520Z,2.80
2023-02-27T11:24:32.832Z,2.20
2023-02-27T11:30:39.668Z,2.20
2023-02-27T11:36:07.230Z,5.30
2023-02-27T11:41:11.188Z,5.70
2023-02-27T11:46:48.525Z,3.90
2023-02-27T11:52:16.309Z,3.20
2023-02-27T11:57:32.731Z,3.00
2023-02-27T12:02:46.753Z,2.30
2023-02-27T12:08:22.461Z,2.50
2023-02-27T12:13:30.282Z,2.10
2023-02-27T12:18:43.731Z,2.30
2023-02-27T12:24:32.948Z,2.80
2023-02-27T12:29:41.669Z,3.20
2023-02-27T12:35:06.023Z,2.50
2023-02-27T12:40:36.468Z,4.20
2023-02-27T12:46:38.094Z,3.30
2023-02-27T12:52:39.136Z,4.00
2023-02-27T12:58:13.206Z,2.90
2023-02-27T13:03:26.696Z,2.20
2023-02-27T13:08:50.993Z,2.60
2023-02-27T13:14:13.110Z,7.60
2023-02-27T13:20:29.650Z,2.90
2023-02-27T13:26:35.774Z,3.90
2023-02-27T13:32:43.221Z,2.40
2023-02-27T13:38:28.673Z,2.40
2023-02-27T13:43:51.746Z,2.60
2023-02-27T13:49:29.823Z,3.80
2023-02-27T13:54:59.902Z,8.60
2023-02-27T14:00:31.740Z,7.40
2023-02-27T14:05:43.220Z,11.20
2023-02-27T14:11:00.469Z,5.80
2023-02-27T14:16:19.940Z,4.80
2023-02-27T14:22:39.231Z,5.40
2023-02-27T14:28:10.982Z,3.80
2023-02-27T14:33:42.452Z,2.90
2023-02-27T14:38:58.357Z,3.30
2023-02-27T14:44:02.153Z,3.80
2023-02-27T14:49:20.944Z,7.60
2023-02-27T14:54:26.457Z,3.30
2023-02-27T14:59:48.724Z,3.30
2023-02-27T15:06:04.103Z,3.30
2023-02-27T15:11:15.444Z,4.70
2023-02-27T15:16:24.816Z,4.00
2023-02-27T15:21:33.993Z,4.40
2023-02-27T15:26:48.220Z,3.70
2023-02-27T15:32:03.920Z,6.10
2023-02-27T15:37:07.552Z,5.00
2023-02-27T15:42:49.944Z,4.50
2023-02-27T15:47:53.586Z,5.00
2023-02-27T15:53:17.155Z,5.40
2023-02-27T15:59:08.590Z,10.70
2023-02-27T16:04:39.540Z,7.70
2023-02-27T16:10:11.047Z,8.70
2023-02-27T16:15:31.464Z,15.50
2023-02-27T16:21:14.720Z,5.00
2023-02-27T16:27:09.879Z,5.00
2023-02-27T16:32:44.848Z,18.30
2023-02-27T16:37:53.642Z,13.60
2023-02-27T16:43:03.902Z,15.20
2023-02-27T16:48:26.205Z,5.00
2023-02-27T16:54:30.176Z,5.60
2023-02-27T17:00:02.709Z,12.20
2023-02-27T17:05:49.481Z,6.20
2023-02-27T17:11:05.585Z,8.40
2023-02-27T17:16:19.007Z,9.80
2023-02-27T17:21:43.271Z,8.50
2023-02-27T17:27:01.009Z,12.50
2023-02-27T17:32:34.873Z,20.90
2023-02-27T17:37:50.781Z,15.40
2023-02-27T17:43:53.702Z,9.80
2023-02-27T17:49:18.400Z,11.80
2023-02-27T17:54:44.690Z,7.90
2023-02-27T18:00:41.714Z,10.00
2023-02-27T18:06:21.699Z,5.40
2023-02-27T18:11:25.238Z,8.00
2023-02-27T18:16:38.851Z,6.40
2023-02-27T18:21:58.706Z,5.80
2023-02-27T18:27:02.493Z,12.20
2023-02-27T18:32:15.844Z,11.70
2023-02-27T18:37:29.580Z,10.10
2023-02-27T18:42:59.071Z,8.70
2023-02-27T18:48:32.998Z,7.00
2023-02-27T18:53:41.445Z,6.00
2023-02-27T18:59:48.596Z,6.20
2023-02-27T19:05:45.583Z,7.60
2023-02-27T19:10:58.295Z,6.60
2023-02-27T19:16:22.221Z,7.00
2023-02-27T19:21:26.870Z,7.20
2023-02-27T19:26:43.935Z,7.60
2023-02-27T19:31:52.656Z,9.50
2023-02-27T19:37:12.470Z,8.90
2023-02-27T19:42:18.340Z,9.10
2023-02-27T19:48:24.948Z,9.50
2023-02-27T19:53:48.974Z,11.00
2023-02-27T19:58:55.239Z,9.10
2023-02-27T20:05:13.116Z,9.40
2023-02-27T20:11:17.453Z,10.20
2023-02-27T20:16:35.617Z,11.80
2023-02-27T20:21:49.440Z,13.30
2023-02-27T20:27:03.099Z,12.90
2023-02-27T20:32:39.430Z,12.20
2023-02-27T20:38:31.089Z,12.50
2023-02-27T20:43:40.067Z,16.10
2023-02-27T20:48:56.794Z,15.10
2023-02-27T20:54:23.575Z,15.20
2023-02-27T20:59:50.352Z,15.00
2023-02-27T21:05:14.528Z,14.00
2023-02-27T21:11:28.897Z,13.60
2023-02-27T21:17:29.702Z,12.40
2023-02-27T21:23:43.797Z,11.90
2023-02-27T21:29:25.379Z,12.50
2023-02-27T21:35:22.096Z,12.30
2023-02-27T21:41:18.537Z,24.30
2023-02-27T21:46:21.997Z,24.10
2023-02-27T21:51:38.762Z,27.80
2023-02-27T21:56:46.930Z,24.10
2023-02-27T22:02:14.959Z,25.40
2023-02-27T22:07:21.862Z,29.50
2023-02-27T22:12:25.197Z,25.20
2023-02-27T22:17:28.427Z,25.90
2023-02-27T22:23:02.008Z,24.60
2023-02-27T22:28:07.915Z,21.80
2023-02-27T22:33:54.147Z,21.60
2023-02-27T22:39:10.444Z,20.60
2023-02-27T22:44:17.022Z,19.00
2023-02-27T22:49:23.588Z,18.80
2023-02-27T22:55:27.725Z,18.20
2023-02-27T23:00:54.609Z,18.90
2023-02-27T23:06:43.094Z,21.60
2023-02-27T23:11:56.158Z,18.90
2023-02-27T23:17:08.454Z,16.30
2023-02-27T23:22:14.716Z,14.80
2023-02-27T23:27:41.145Z,15.30
2023-02-27T23:33:20.947Z,14.90
2023-02-27T23:38:28.445Z,15.40
2023-02-27T23:43:42.110Z,14.70
2023-02-27T23:48:48.721Z,16.70
2023-02-27T23:54:02.248Z,18.80
2023-02-27T23:59:11.014Z,18.40
